createdAt,value
2023-02-25T00:03:59.585Z,6.03
2023-02-25T00:09:01.241Z,5.89
2023-02-25T00:14:02.997Z,6.00
2023-02-25T00:19:04.579Z,5.92
2023-02-25T00:24:16.006Z,6.11
2023-02-25T00:29:18.510Z,6.12
2023-02-25T00:34:20.567Z,6.00
2023-02-25T00:39:24.032Z,6.03
2023-02-25T00:44:25.652Z,5.87
2023-02-25T00:49:32.398Z,5.94
2023-02-25T00:54:34.617Z,6.06
2023-02-25T00:59:37.986Z,5.90
2023-02-25T01:04:39.526Z,5.85
2023-02-25T01:09:42.613Z,6.15
2023-02-25T01:14:44.822Z,5.98
2023-02-25T01:19:46.422Z,6.05
2023-02-25T01:24:49.390Z,5.86
2023-02-25T01:29:50.993Z,6.16
2023-02-25T01:34:52.676Z,6.20
2023-02-25T01:39:54.326Z,6.29
2023-02-25T01:45:17.929Z,6.36
2023-02-25T01:50:20.363Z,6.38
2023-02-25T01:55:24.270Z,6.52
2023-02-25T02:00:28.302Z,6.27
2023-02-25T02:05:56.013Z,6.41
2023-02-25T02:10:58.022Z,6.37
2023-02-25T02:16:14.662Z,6.29
2023-02-25T02:21:34.416Z,6.07
2023-02-25T02:26:46.546Z,6.46
2023-02-25T02:31:54.152Z,6.30
2023-02-25T02:37:04.648Z,6.56
2023-02-25T02:42:15.782Z,6.50
2023-02-25T02:47:23.198Z,6.13
2023-02-25T02:52:28.894Z,6.19
2023-02-25T02:57:31.642Z,6.28
2023-02-25T03:02:37.742Z,6.20
2023-02-25T03:07:51.325Z,6.17
2023-02-25T03:12:53.062Z,6.10
2023-02-25T03:17:59.472Z,6.38
2023-02-25T03:23:03.028Z,5.95
2023-02-25T03:28:16.669Z,5.86
2023-02-25T03:33:40.562Z,6.02
2023-02-25T03:38:45.461Z,6.18
2023-02-25T03:43:53.013Z,5.87
2023-02-25T03:48:55.882Z,5.89
2023-02-25T03:54:00.619Z,5.92
2023-02-25T03:59:06.101Z,5.82
2023-02-25T04:04:07.735Z,6.03
2023-02-25T04:09:09.343Z,6.04
2023-02-25T04:14:10.938Z,5.94
2023-02-25T04:19:12.635Z,6.10
2023-02-25T04:24:15.912Z,6.09
2023-02-25T04:29:17.471Z,5.97
2023-02-25T04:34:19.423Z,6.05
2023-02-25T04:39:20.990Z,5.87
2023-02-25T04:44:22.596Z,5.58
2023-02-25T04:49:24.444Z,5.39
2023-02-25T04:54:25.998Z,5.19
2023-02-25T04:59:27.623Z,5.23
2023-02-25T05:04:29.352Z,5.75
2023-02-25T05:09:31.282Z,5.58
2023-02-25T05:14:33.221Z,5.11
2023-02-25T05:19:34.791Z,5.35
2023-02-25T05:24:36.591Z,5.48
2023-02-25T05:29:38.167Z,5.61
2023-02-25T05:34:41.480Z,5.25
2023-02-25T05:39:43.095Z,5.30
2023-02-25T05:44:44.666Z,5.42
2023-02-25T05:49:46.310Z,5.29
2023-02-25T05:54:48.350Z,5.46
2023-02-25T05:59:50.590Z,5.33
2023-02-25T06:04:53.790Z,5.42
2023-02-25T06:10:00.751Z,5.37
2023-02-25T06:15:02.367Z,5.37
2023-02-25T06:20:05.465Z,5.09
2023-02-25T06:25:07.842Z,5.23
2023-02-25T06:30:10.173Z,5.38
2023-02-25T06:35:11.742Z,5.23
2023-02-25T06:40:15.155Z,4.94
2023-02-25T06:45:17.002Z,5.00
2023-02-25T06:50:19.531Z,4.74
2023-02-25T06:55:21.442Z,4.99
2023-02-25T07:00:23.244Z,5.09
2023-02-25T07:05:24.835Z,4.84
2023-02-25T07:10:26.397Z,5.11
2023-02-25T07:15:28.052Z,5.13
2023-02-25T07:20:30.146Z,4.88
2023-02-25T07:25:31.851Z,5.07
2023-02-25T07:30:33.528Z,5.06
2023-02-25T07:35:35.098Z,5.15
2023-02-25T07:40:36.910Z,5.49
2023-02-25T07:45:38.517Z,5.26
2023-02-25T07:50:40.108Z,5.38
2023-02-25T07:55:45.135Z,5.49
2023-02-25T08:00:47.279Z,5.43
2023-02-25T08:05:54.080Z,5.58
2023-02-25T08:10:55.637Z,5.37
2023-02-25T08:15:57.278Z,5.11
2023-02-25T08:21:00.007Z,5.24
2023-02-25T08:26:02.521Z,5.23
2023-02-25T08:31:06.338Z,5.50
2023-02-25T08:36:11.602Z,5.51
2023-02-25T08:41:13.650Z,5.41
2023-02-25T08:46:15.209Z,4.91
2023-02-25T08:51:19.105Z,5.18
2023-02-25T08:56:20.782Z,5.50
2023-02-25T09:01:23.562Z,5.53
2023-02-25T09:06:30.067Z,5.92
2023-02-25T09:11:32.506Z,5.83
2023-02-25T09:16:34.191Z,5.51
2023-02-25T09:21:36.829Z,5.92
2023-02-25T09:26:38.373Z,5.82
2023-02-25T09:31:40.209Z,5.49
2023-02-25T09:36:42.567Z,5.76
2023-02-25T09:41:54.539Z,5.04
2023-02-25T09:47:27.187Z,5.40
2023-02-25T09:52:54.289Z,5.84
2023-02-25T09:58:06.150Z,5.76
2023-02-25T10:03:16.806Z,5.39
2023-02-25T10:08:34.702Z,5.32
2023-02-25T10:13:55.251Z,5.24
2023-02-25T10:19:21.885Z,5.70
2023-02-25T10:24:29.622Z,5.47
2023-02-25T10:29:55.834Z,5.06
2023-02-25T10:35:00.625Z,5.39
2023-02-25T10:40:05.015Z,5.35
2023-02-25T10:45:13.729Z,5.19
2023-02-25T10:50:20.134Z,5.55
2023-02-25T10:55:54.696Z,5.48
2023-02-25T11:01:10.231Z,5.59
2023-02-25T11:06:23.579Z,5.03
2023-02-25T11:11:37.152Z,5.56
2023-02-25T11:16:40.717Z,5.44
2023-02-25T11:21:42.715Z,5.45
2023-02-25T11:26:47.280Z,5.57
2023-02-25T11:31:59.339Z,5.16
2023-02-25T11:37:24.164Z,5.74
2023-02-25T11:42:27.493Z,5.41
2023-02-25T11:47:31.991Z,5.79
2023-02-25T11:52:59.828Z,5.74
2023-02-25T11:58:22.966Z,5.82
2023-02-25T12:03:49.364Z,5.41
2023-02-25T12:09:14.254Z,5.50
2023-02-25T12:14:34.495Z,5.76
2023-02-25T12:20:01.571Z,5.58
2023-02-25T12:25:22.091Z,5.66
2023-02-25T12:30:45.236Z,5.54
2023-02-25T12:36:05.830Z,5.72
2023-02-25T12:41:32.197Z,5.56
2023-02-25T12:47:12.542Z,5.14
2023-02-25T12:52:25.214Z,5.22
2023-02-25T12:57:56.079Z,5.49
2023-02-25T13:03:29.250Z,5.59
2023-02-25T13:08:45.255Z,5.84
2023-02-25T13:14:12.055Z,5.42
2023-02-25T13:19:25.628Z,5.33
2023-02-25T13:24:45.856Z,5.21
2023-02-25T13:30:05.432Z,5.53
2023-02-25T13:35:32.221Z,5.11
2023-02-25T13:40:39.967Z,4.97
2023-02-25T13:46:25.636Z,4.39
2023-02-25T13:51:57.271Z,4.81
2023-02-25T13:57:36.416Z,4.84
2023-02-25T14:02:59.665Z,5.23
2023-02-25T14:08:16.612Z,5.36
2023-02-25T14:13:26.665Z,5.51
2023-02-25T14:18:37.155Z,5.44
2023-02-25T14:24:05.726Z,4.96
2023-02-25T14:29:18.349Z,4.83
2023-02-25T14:34:19.862Z,3.69
2023-02-25T14:39:58.938Z,3.25
2023-02-25T14:45:12.557Z,3.36
2023-02-25T14:50:23.101Z,3.85
2023-02-25T14:56:21.455Z,4.29
2023-02-25T15:01:50.980Z,4.60
2023-02-25T15:07:12.863Z,4.51
2023-02-25T15:12:21.048Z,4.48
2023-02-25T15:17:43.672Z,4.40
2023-02-25T15:23:04.943Z,4.74
2023-02-25T15:28:31.123Z,4.37
2023-02-25T15:33:45.677Z,4.32
2023-02-25T15:38:48.788Z,3.97
2023-02-25T15:43:50.476Z,4.45
2023-02-25T15:49:21.647Z,3.30
2023-02-25T15:54:32.075Z,3.42
2023-02-25T15:59:49.388Z,3.42
2023-02-25T16:04:51.242Z,3.47
2023-02-25T16:09:58.843Z,3.03
2023-02-25T16:15:01.277Z,3.15
2023-02-25T16:20:16.983Z,2.96
2023-02-25T16:25:30.625Z,2.95
2023-02-25T16:30:43.249Z,3.31
2023-02-25T16:36:08.606Z,3.81
2023-02-25T16:41:12.022Z,3.47
2023-02-25T16:46:20.416Z,3.23
2023-02-25T16:51:24.803Z,3.02
2023-02-25T16:56:29.004Z,3.69
2023-02-25T17:01:33.347Z,3.80
2023-02-25T17:06:35.257Z,2.74
2023-02-25T17:11:37.449Z,3.06
2023-02-25T17:16:43.488Z,2.53
2023-02-25T17:21:54.226Z,2.54
2023-02-25T17:26:55.902Z,2.62
2023-02-25T17:31:58.383Z,2.57
2023-02-25T17:37:04.029Z,2.76
2023-02-25T17:42:33.236Z,2.12
2023-02-25T17:47:37.073Z,2.41
2023-02-25T17:52:39.702Z,2.15
2023-02-25T17:57:42.070Z,2.23
2023-02-25T18:02:46.720Z,1.99
2023-02-25T18:07:57.441Z,2.76
2023-02-25T18:13:00.872Z,3.02
2023-02-25T18:18:04.686Z,2.90
2023-02-25T18:23:15.295Z,2.68
2023-02-25T18:28:22.026Z,2.85
2023-02-25T18:33:23.613Z,3.18
2023-02-25T18:38:26.992Z,2.80
2023-02-25T18:43:30.713Z,2.97
2023-02-25T18:48:32.603Z,2.58
2023-02-25T18:53:34.290Z,3.00
2023-02-25T18:58:35.916Z,2.97
2023-02-25T19:03:43.717Z,3.46
2023-02-25T19:08:45.444Z,3.14
2023-02-25T19:13:47.021Z,2.73
2023-02-25T19:18:48.776Z,2.55
2023-02-25T19:23:51.799Z,2.95
2023-02-25T19:28:53.471Z,3.12
2023-02-25T19:33:55.202Z,3.04
2023-02-25T19:38:56.785Z,3.12
2023-02-25T19:43:58.389Z,2.62
2023-02-25T19:49:00.157Z,2.65
2023-02-25T19:54:01.725Z,2.00
2023-02-25T19:59:03.349Z,2.70
2023-02-25T20:04:06.165Z,2.92
2023-02-25T20:09:09.593Z,3.07
2023-02-25T20:14:13.995Z,2.30
2023-02-25T20:19:15.810Z,2.24
2023-02-25T20:24:17.420Z,2.46
2023-02-25T20:29:19.410Z,2.38
2023-02-25T20:34:22.584Z,2.65
2023-02-25T20:39:39.246Z,2.42
2023-02-25T20:44:41.362Z,2.55
2023-02-25T20:49:43.047Z,2.34
2023-02-25T20:54:44.707Z,2.16
2023-02-25T20:59:48.116Z,2.42
2023-02-25T21:04:50.485Z,2.49
2023-02-25T21:09:52.109Z,2.27
2023-02-25T21:14:53.721Z,1.78
2023-02-25T21:19:55.358Z,2.45
2023-02-25T21:24:57.976Z,2.20
2023-02-25T21:29:59.687Z,2.54
2023-02-25T21:35:01.295Z,2.70
2023-02-25T21:40:04.077Z,1.75
2023-02-25T21:45:06.148Z,1.80
2023-02-25T21:50:08.433Z,2.32
2023-02-25T21:55:10.133Z,2.43
2023-02-25T22:00:12.352Z,2.13
2023-02-25T22:05:14.198Z,1.80
2023-02-25T22:10:15.971Z,2.49
2023-02-25T22:15:17.665Z,2.61
2023-02-25T22:20:19.345Z,2.24
2023-02-25T22:25:20.919Z,2.32
2023-02-25T22:30:22.467Z,2.32
2023-02-25T22:35:24.115Z,2.12
2023-02-25T22:40:26.187Z,1.87
2023-02-25T22:45:27.747Z,2.02
2023-02-25T22:50:29.321Z,2.16
2023-02-25T22:55:33.013Z,2.42
2023-02-25T23:00:41.769Z,2.01
2023-02-25T23:05:43.333Z,1.98
2023-02-25T23:10:44.903Z,1.71
2023-02-25T23:15:47.837Z,2.25
2023-02-25T23:20:53.448Z,1.84
2023-02-25T23:25:55.009Z,1.98
2023-02-25T23:30:56.602Z,1.99
2023-02-25T23:35:59.568Z,2.54
2023-02-25T23:41:01.171Z,2.52
2023-02-25T23:46:06.517Z,2.22
2023-02-25T23:51:08.969Z,2.36
2023-02-25T23:56:12.160Z,2.39
